createdAt,value
2018-09-29T00:00:21.282Z,10.61
2018-09-29T00:02:50.386Z,10.56
2018-09-29T00:05:19.538Z,10.43
2018-09-29T00:07:48.802Z,10.42
2018-09-29T00:10:18.502Z,10.42
2018-09-29T00:12:47.611Z,10.31
2018-09-29T00:15:16.775Z,10.28
2018-09-29T00:17:45.903Z,10.24
2018-09-29T00:20:15.098Z,10.24
2018-09-29T00:22:44.890Z,10.17
2018-09-29T00:25:14.154Z,10.26
2018-09-29T00:27:43.292Z,10.40
2018-09-29T00:30:12.459Z,10.54
2018-09-29T00:32:41.611Z,10.63
2018-09-29T00:35:11.150Z,10.71
2018-09-29T00:37:40.274Z,10.68
2018-09-29T00:40:09.752Z,10.56
2018-09-29T00:42:40.131Z,10.69
2018-09-29T00:45:10.128Z,10.66
2018-09-29T00:47:39.394Z,10.71
2018-09-29T00:50:09.090Z,10.81
2018-09-29T00:52:38.865Z,10.76
2018-09-29T00:55:09.018Z,10.87
2018-09-29T00:57:38.782Z,10.96
2018-09-29T01:00:07.937Z,10.91
2018-09-29T01:02:37.078Z,10.87
2018-09-29T01:05:06.235Z,11.04
2018-09-29T01:07:40.054Z,10.96
2018-09-29T01:10:09.201Z,11.03
2018-09-29T01:12:39.062Z,11.08
2018-09-29T01:15:08.768Z,11.12
2018-09-29T01:17:38.286Z,11.10
2018-09-29T01:20:07.498Z,11.05
2018-09-29T01:22:37.190Z,10.99
2018-09-29T01:25:06.879Z,10.82
2018-09-29T01:27:35.998Z,10.69
2018-09-29T01:30:05.178Z,10.70
2018-09-29T01:32:34.778Z,10.61
2018-09-29T01:35:04.971Z,10.54
2018-09-29T01:37:34.101Z,10.49
2018-09-29T01:40:03.314Z,10.41
2018-09-29T01:42:39.385Z,10.25
2018-09-29T01:45:08.838Z,10.05
2018-09-29T01:47:37.938Z,10.13
2018-09-29T01:50:07.800Z,10.05
2018-09-29T01:52:36.903Z,9.91
2018-09-29T01:55:06.006Z,9.82
2018-09-29T01:57:35.106Z,9.63
2018-09-29T02:00:04.209Z,9.35
2018-09-29T02:02:33.370Z,9.28
2018-09-29T02:05:02.461Z,9.16
2018-09-29T02:07:31.546Z,9.17
2018-09-29T02:10:00.649Z,8.88
2018-09-29T02:12:29.741Z,8.71
2018-09-29T02:14:58.825Z,8.64
2018-09-29T02:17:30.317Z,8.53
2018-09-29T02:19:59.446Z,8.56
2018-09-29T02:22:29.139Z,8.41
2018-09-29T02:24:58.403Z,8.30
2018-09-29T02:27:27.649Z,8.22
2018-09-29T02:29:58.234Z,8.43
2018-09-29T02:32:27.431Z,8.48
2018-09-29T02:34:57.237Z,8.38
2018-09-29T02:37:26.353Z,8.25
2018-09-29T02:39:55.429Z,8.39
2018-09-29T02:42:26.182Z,8.38
2018-09-29T02:44:55.470Z,8.23
2018-09-29T02:47:24.670Z,8.26
2018-09-29T02:49:53.879Z,8.19
2018-09-29T02:52:23.425Z,8.17
2018-09-29T02:54:53.834Z,8.13
2018-09-29T02:57:22.953Z,8.08
2018-09-29T02:59:52.074Z,7.84
2018-09-29T03:02:21.186Z,7.66
2018-09-29T03:04:50.293Z,7.59
2018-09-29T03:07:19.421Z,7.50
2018-09-29T03:09:48.476Z,7.43
2018-09-29T03:12:17.597Z,7.80
2018-09-29T03:14:46.811Z,7.78
2018-09-29T03:17:15.966Z,7.76
2018-09-29T03:19:45.073Z,7.69
2018-09-29T03:22:14.958Z,7.65
2018-09-29T03:24:44.149Z,7.77
2018-09-29T03:27:13.238Z,7.66
2018-09-29T03:29:42.972Z,7.54
2018-09-29T03:32:12.221Z,7.50
2018-09-29T03:34:41.366Z,7.52
2018-09-29T03:37:12.805Z,7.63
2018-09-29T03:39:42.791Z,7.46
2018-09-29T03:42:11.880Z,7.32
2018-09-29T03:44:41.067Z,7.25
2018-09-29T03:47:10.362Z,7.15
2018-09-29T03:49:39.451Z,7.10
2018-09-29T03:52:08.574Z,7.17
2018-09-29T03:54:38.122Z,7.13
2018-09-29T03:57:07.222Z,7.04
2018-09-29T03:59:36.570Z,7.06
2018-09-29T04:02:05.687Z,6.91
2018-09-29T04:04:34.966Z,7.23
2018-09-29T04:07:04.150Z,7.29
2018-09-29T04:09:33.281Z,7.35
2018-09-29T04:12:02.398Z,7.37
2018-09-29T04:14:31.629Z,7.45
2018-09-29T04:17:00.761Z,7.69
2018-09-29T04:19:29.925Z,7.86
2018-09-29T04:21:59.015Z,7.98
2018-09-29T04:24:28.141Z,8.00
2018-09-29T04:26:57.300Z,8.09
2018-09-29T04:29:28.861Z,7.87
2018-09-29T04:31:58.294Z,7.51
2018-09-29T04:34:27.873Z,7.38
2018-09-29T04:36:56.954Z,7.37
2018-09-29T04:39:26.076Z,7.38
2018-09-29T04:41:55.180Z,7.23
2018-09-29T04:44:24.264Z,7.07
2018-09-29T04:46:53.358Z,7.30
2018-09-29T04:49:22.479Z,7.26
2018-09-29T04:51:53.070Z,7.40
2018-09-29T04:54:22.186Z,7.25
2018-09-29T04:56:52.317Z,7.08
2018-09-29T04:59:21.609Z,6.99
2018-09-29T05:01:50.714Z,6.94
2018-09-29T05:04:19.877Z,6.98
2018-09-29T05:06:49.305Z,6.79
2018-09-29T05:09:18.389Z,6.81
2018-09-29T05:11:47.505Z,6.79
2018-09-29T05:14:16.578Z,6.85
2018-09-29T05:16:45.711Z,6.70
2018-09-29T05:19:15.633Z,6.99
2018-09-29T05:21:44.741Z,6.92
2018-09-29T05:24:13.845Z,6.60
2018-09-29T05:26:43.726Z,6.63
2018-09-29T05:29:13.163Z,6.62
2018-09-29T05:31:42.237Z,6.70
2018-09-29T05:34:11.393Z,6.65
2018-09-29T05:36:40.490Z,6.64
2018-09-29T05:39:09.970Z,6.59
2018-09-29T05:41:39.067Z,6.47
2018-09-29T05:44:08.177Z,6.52
2018-09-29T05:46:38.303Z,6.68
2018-09-29T05:49:07.822Z,6.86
2018-09-29T05:51:36.912Z,6.95
2018-09-29T05:54:06.346Z,6.92
2018-09-29T05:56:36.193Z,6.92
2018-09-29T05:59:11.313Z,6.79
2018-09-29T06:01:41.026Z,6.81
2018-09-29T06:04:10.866Z,6.93
2018-09-29T06:06:40.072Z,7.00
2018-09-29T06:09:09.675Z,6.98
2018-09-29T06:11:38.762Z,7.11
2018-09-29T06:14:07.997Z,7.55
2018-09-29T06:16:37.077Z,8.38
2018-09-29T06:19:06.175Z,8.78
2018-09-29T06:21:35.301Z,9.31
2018-09-29T06:24:04.461Z,9.53
2018-09-29T06:26:34.302Z,10.17
2018-09-29T06:29:03.431Z,10.19
2018-09-29T06:31:32.526Z,10.07
2018-09-29T06:34:01.601Z,10.56
2018-09-29T06:36:30.710Z,11.15
2018-09-29T06:39:02.239Z,11.45
2018-09-29T06:41:31.379Z,11.63
2018-09-29T06:44:00.546Z,11.75
2018-09-29T06:46:29.720Z,11.03
2018-09-29T06:48:58.858Z,10.80
2018-09-29T06:51:27.998Z,11.36
2018-09-29T06:53:57.133Z,11.61
2018-09-29T06:56:26.311Z,12.10
2018-09-29T06:58:55.835Z,12.70
2018-09-29T07:01:25.890Z,11.94
2018-09-29T07:03:55.653Z,11.92
2018-09-29T07:06:24.829Z,11.50
2018-09-29T07:08:54.718Z,12.38
2018-09-29T07:11:23.977Z,13.18
2018-09-29T07:13:53.317Z,13.14
2018-09-29T07:16:22.578Z,13.54
2018-09-29T07:18:51.925Z,13.79
2018-09-29T07:21:21.241Z,13.24
2018-09-29T07:23:50.705Z,12.67
2018-09-29T07:26:20.223Z,12.22
2018-09-29T07:28:49.493Z,12.80
2018-09-29T07:31:19.011Z,14.45
2018-09-29T07:33:48.920Z,14.02
2018-09-29T07:36:18.058Z,12.55
2018-09-29T07:38:47.157Z,13.08
2018-09-29T07:41:17.008Z,13.54
2018-09-29T07:43:46.116Z,15.10
2018-09-29T07:46:15.214Z,15.90
2018-09-29T07:48:45.102Z,16.61
2018-09-29T07:51:14.206Z,17.22
2018-09-29T07:53:43.345Z,15.68
2018-09-29T07:56:13.199Z,14.74
2018-09-29T07:58:42.329Z,14.25
2018-09-29T08:01:12.230Z,14.92
2018-09-29T08:03:41.309Z,15.05
2018-09-29T08:06:10.431Z,13.17
2018-09-29T08:08:39.526Z,13.23
2018-09-29T08:11:11.069Z,13.06
2018-09-29T08:13:40.186Z,13.49
2018-09-29T08:16:10.550Z,13.10
2018-09-29T08:18:39.685Z,13.26
2018-09-29T08:21:08.850Z,12.88
2018-09-29T08:23:37.958Z,12.94
2018-09-29T08:26:07.126Z,12.96
2018-09-29T08:28:36.366Z,12.52
2018-09-29T08:31:05.485Z,12.71
2018-09-29T08:33:34.830Z,13.33
2018-09-29T08:36:04.425Z,13.00
2018-09-29T08:38:33.622Z,13.24
2018-09-29T08:41:03.561Z,13.41
2018-09-29T08:43:32.959Z,13.82
2018-09-29T08:46:02.253Z,13.84
2018-09-29T08:48:31.453Z,13.84
2018-09-29T08:51:00.559Z,13.57
2018-09-29T08:53:29.707Z,13.43
2018-09-29T08:55:58.878Z,13.27
2018-09-29T08:58:28.010Z,14.43
2018-09-29T09:00:57.118Z,14.12
2018-09-29T09:03:26.257Z,14.10
2018-09-29T09:05:57.322Z,14.20
2018-09-29T09:08:26.446Z,14.48
2018-09-29T09:10:55.641Z,14.74
2018-09-29T09:13:24.742Z,14.35
2018-09-29T09:15:54.010Z,14.49
2018-09-29T09:18:23.919Z,14.62
2018-09-29T09:20:53.809Z,14.78
2018-09-29T09:23:22.961Z,14.99
2018-09-29T09:25:52.054Z,14.70
2018-09-29T09:28:21.446Z,14.75
2018-09-29T09:30:50.772Z,15.08
2018-09-29T09:33:19.986Z,15.61
2018-09-29T09:35:49.253Z,15.70
2018-09-29T09:38:18.402Z,15.61
2018-09-29T09:40:47.530Z,15.08
2018-09-29T09:43:19.129Z,15.14
2018-09-29T09:45:48.235Z,14.85
2018-09-29T09:48:17.334Z,15.24
2018-09-29T09:50:46.558Z,15.78
2018-09-29T09:53:15.746Z,16.43
2018-09-29T09:55:44.845Z,16.60
2018-09-29T09:58:13.990Z,16.91
2018-09-29T10:00:48.397Z,17.58
2018-09-29T10:03:23.865Z,17.64
2018-09-29T10:05:54.022Z,17.40
2018-09-29T10:08:23.180Z,17.78
2018-09-29T10:10:52.282Z,17.52
2018-09-29T10:13:21.380Z,17.15
2018-09-29T10:15:50.689Z,17.31
2018-09-29T10:18:19.798Z,16.91
2018-09-29T10:20:48.926Z,16.94
2018-09-29T10:23:18.061Z,17.23
2018-09-29T10:25:47.638Z,16.83
2018-09-29T10:28:16.739Z,17.57
2018-09-29T10:30:45.939Z,18.40
2018-09-29T10:33:15.063Z,17.47
2018-09-29T10:35:44.326Z,17.46
2018-09-29T10:38:13.633Z,17.82
2018-09-29T10:40:43.198Z,18.35
2018-09-29T10:43:12.934Z,18.27
2018-09-29T10:45:42.246Z,17.98
2018-09-29T10:48:11.366Z,17.73
2018-09-29T10:50:40.526Z,17.88
2018-09-29T10:53:09.609Z,19.00
2018-09-29T10:55:38.707Z,19.15
2018-09-29T10:58:07.857Z,18.34
2018-09-29T11:00:37.026Z,18.98
2018-09-29T11:03:06.109Z,19.57
2018-09-29T11:05:35.289Z,20.48
2018-09-29T11:08:04.757Z,19.90
2018-09-29T11:10:33.874Z,19.63
2018-09-29T11:13:02.975Z,18.24
2018-09-29T11:15:32.106Z,17.59
2018-09-29T11:18:01.236Z,17.11
2018-09-29T11:20:30.349Z,17.18
2018-09-29T11:22:59.449Z,17.21
2018-09-29T11:25:28.577Z,17.60
2018-09-29T11:27:57.710Z,17.81
2018-09-29T11:30:26.831Z,18.93
2018-09-29T11:32:55.931Z,19.23
2018-09-29T11:35:25.306Z,19.64
2018-09-29T11:37:54.577Z,20.72
2018-09-29T11:40:23.867Z,21.70
2018-09-29T11:42:53.412Z,22.75
2018-09-29T11:45:22.821Z,24.65
2018-09-29T11:47:51.925Z,27.07
2018-09-29T11:50:21.034Z,27.24
2018-09-29T11:52:50.178Z,26.85
2018-09-29T11:55:19.355Z,27.81
2018-09-29T11:57:48.458Z,27.76
2018-09-29T12:00:17.677Z,28.35
2018-09-29T12:02:46.789Z,27.67
2018-09-29T12:05:15.903Z,28.58
2018-09-29T12:07:45.130Z,27.26
2018-09-29T12:10:14.185Z,28.66
2018-09-29T12:12:43.367Z,25.91
2018-09-29T12:15:12.550Z,27.60
2018-09-29T12:17:41.633Z,28.20
2018-09-29T12:20:10.702Z,27.29
2018-09-29T12:22:39.841Z,26.93
2018-09-29T12:25:08.945Z,27.09
2018-09-29T12:27:38.038Z,28.57
2018-09-29T12:30:08.242Z,28.70
2018-09-29T12:32:37.344Z,26.22
2018-09-29T12:35:06.463Z,27.77
2018-09-29T12:37:35.607Z,27.16
2018-09-29T12:40:05.381Z,25.05
2018-09-29T12:42:35.260Z,21.31
2018-09-29T12:45:04.350Z,20.05
2018-09-29T12:47:33.499Z,19.32
2018-09-29T12:50:02.663Z,18.23
2018-09-29T12:52:31.718Z,17.71
2018-09-29T12:55:00.806Z,17.29
2018-09-29T12:57:29.931Z,17.13
2018-09-29T12:59:59.008Z,16.79
2018-09-29T13:02:28.139Z,16.89
2018-09-29T13:04:57.229Z,16.90
2018-09-29T13:07:26.310Z,17.23
2018-09-29T13:09:55.437Z,17.72
2018-09-29T13:12:24.534Z,18.80
2018-09-29T13:14:53.645Z,18.65
2018-09-29T13:17:22.745Z,19.50
2018-09-29T13:19:51.825Z,20.86
2018-09-29T13:22:20.948Z,23.40
2018-09-29T13:24:50.058Z,26.92
2018-09-29T13:27:19.137Z,25.61
2018-09-29T13:29:48.262Z,23.94
2018-09-29T13:32:17.403Z,25.08
2018-09-29T13:34:47.073Z,24.29
2018-09-29T13:37:16.171Z,22.90
2018-09-29T13:39:45.297Z,21.45
2018-09-29T13:42:15.206Z,19.70
2018-09-29T13:44:44.419Z,19.04
2018-09-29T13:47:13.518Z,18.46
2018-09-29T13:49:42.633Z,18.18
2018-09-29T13:52:11.746Z,17.80
2018-09-29T13:54:41.429Z,17.38
2018-09-29T13:57:10.626Z,17.37
2018-09-29T13:59:40.569Z,17.41
2018-09-29T14:02:09.702Z,17.19
2018-09-29T14:04:38.957Z,17.07
2018-09-29T14:07:08.077Z,17.29
2018-09-29T14:09:37.198Z,17.24
2018-09-29T14:12:07.049Z,17.21
2018-09-29T14:14:36.229Z,17.49
2018-09-29T14:17:05.406Z,17.24
2018-09-29T14:19:34.621Z,16.97
2018-09-29T14:22:03.771Z,17.00
2018-09-29T14:24:33.041Z,17.22
2018-09-29T14:27:02.237Z,17.19
2018-09-29T14:29:31.338Z,17.50
2018-09-29T14:32:00.433Z,17.83
2018-09-29T14:34:29.385Z,17.12
2018-09-29T14:36:58.712Z,16.97
2018-09-29T14:39:28.485Z,17.43
2018-09-29T14:41:57.712Z,17.80
2018-09-29T14:44:26.878Z,17.61
2018-09-29T14:46:56.091Z,17.40
2018-09-29T14:49:25.657Z,17.29
2018-09-29T14:51:55.134Z,17.22
2018-09-29T14:54:24.332Z,17.31
2018-09-29T14:56:53.601Z,17.39
2018-09-29T14:59:23.027Z,17.15
2018-09-29T15:01:51.906Z,16.96
2018-09-29T15:04:22.248Z,16.91
2018-09-29T15:06:51.310Z,17.07
2018-09-29T15:09:20.444Z,17.12
2018-09-29T15:11:49.579Z,16.97
2018-09-29T15:14:19.213Z,16.89
2018-09-29T15:16:48.393Z,16.79
2018-09-29T15:19:17.606Z,16.84
2018-09-29T15:21:46.770Z,16.71
2018-09-29T15:24:15.958Z,16.69
2018-09-29T15:26:45.138Z,16.92
2018-09-29T15:29:14.298Z,17.06
2018-09-29T15:31:43.930Z,16.96
2018-09-29T15:34:13.306Z,16.73
2018-09-29T15:36:42.714Z,16.64
2018-09-29T15:39:13.177Z,16.85
2018-09-29T15:41:42.724Z,16.68
2018-09-29T15:44:12.282Z,16.51
2018-09-29T15:46:41.502Z,16.37
2018-09-29T15:49:12.286Z,16.53
2018-09-29T15:51:41.594Z,16.50
2018-09-29T15:54:10.701Z,16.38
2018-09-29T15:56:39.849Z,16.36
2018-09-29T15:59:08.983Z,16.38
2018-09-29T16:01:38.183Z,16.19
2018-09-29T16:04:10.670Z,16.50
2018-09-29T16:06:41.910Z,16.73
2018-09-29T16:09:11.477Z,16.69
2018-09-29T16:11:41.261Z,16.27
2018-09-29T16:14:10.612Z,16.15
2018-09-29T16:16:39.740Z,15.91
2018-09-29T16:19:08.902Z,15.81
2018-09-29T16:21:40.523Z,15.72
2018-09-29T16:24:09.606Z,15.62
2018-09-29T16:26:38.714Z,15.37
2018-09-29T16:29:07.823Z,15.55
2018-09-29T16:31:36.923Z,15.35
2018-09-29T16:34:06.050Z,15.31
2018-09-29T16:36:36.729Z,15.27
2018-09-29T16:39:10.883Z,15.36
2018-09-29T16:41:39.982Z,15.23
2018-09-29T16:44:10.265Z,15.07
2018-09-29T16:46:39.545Z,14.88
2018-09-29T16:49:09.278Z,14.58
2018-09-29T16:51:38.397Z,14.45
2018-09-29T16:54:07.549Z,14.27
2018-09-29T16:56:36.994Z,14.19
2018-09-29T16:59:06.226Z,14.01
2018-09-29T17:01:36.199Z,13.83
2018-09-29T17:04:06.244Z,13.70
2018-09-29T17:06:35.848Z,13.60
2018-09-29T17:09:10.420Z,13.42
2018-09-29T17:11:39.906Z,13.29
2018-09-29T17:14:09.345Z,13.11
2018-09-29T17:16:38.583Z,13.03
2018-09-29T17:19:08.134Z,12.86
2018-09-29T17:21:37.326Z,12.74
2018-09-29T17:24:06.551Z,12.47
2018-09-29T17:26:35.797Z,12.16
2018-09-29T17:29:05.018Z,12.42
2018-09-29T17:31:34.906Z,12.58
2018-09-29T17:34:08.402Z,12.41
2018-09-29T17:36:37.913Z,12.03
2018-09-29T17:39:10.097Z,11.98
2018-09-29T17:41:39.458Z,11.80
2018-09-29T17:44:09.325Z,11.65
2018-09-29T17:46:38.433Z,11.63
2018-09-29T17:49:07.554Z,11.55
2018-09-29T17:51:36.932Z,11.82
2018-09-29T17:54:06.821Z,11.77
2018-09-29T17:56:36.142Z,11.69
2018-09-29T17:59:05.661Z,11.84
2018-09-29T18:01:34.929Z,11.79
2018-09-29T18:04:04.574Z,11.66
2018-09-29T18:06:33.569Z,11.55
2018-09-29T18:09:02.899Z,11.51
2018-09-29T18:11:32.009Z,11.31
2018-09-29T18:14:01.244Z,11.47
2018-09-29T18:16:30.349Z,11.51
2018-09-29T18:18:59.440Z,11.47
2018-09-29T18:21:29.490Z,11.42
2018-09-29T18:23:58.770Z,11.28
2018-09-29T18:26:28.816Z,11.33
2018-09-29T18:28:57.950Z,11.30
2018-09-29T18:31:27.074Z,11.10
2018-09-29T18:33:56.517Z,11.06
2018-09-29T18:36:26.415Z,10.84
2018-09-29T18:38:56.298Z,11.01
2018-09-29T18:41:27.114Z,11.02
2018-09-29T18:43:56.967Z,10.91
2018-09-29T18:46:27.314Z,11.02
2018-09-29T18:48:56.698Z,10.76
2018-09-29T18:51:25.817Z,10.69
2018-09-29T18:53:55.448Z,10.84
2018-09-29T18:56:25.213Z,10.78
2018-09-29T18:58:55.965Z,10.54
2018-09-29T19:01:25.078Z,10.64
2018-09-29T19:03:54.763Z,10.41
2018-09-29T19:06:24.965Z,10.22
2018-09-29T19:08:54.313Z,9.99
2018-09-29T19:11:23.457Z,9.86
2018-09-29T19:13:52.594Z,9.76
2018-09-29T19:16:21.674Z,9.68
2018-09-29T19:18:51.554Z,9.57
2018-09-29T19:21:21.210Z,9.36
2018-09-29T19:23:50.705Z,9.35
2018-09-29T19:26:19.829Z,9.15
2018-09-29T19:28:49.033Z,9.42
2018-09-29T19:31:18.966Z,9.33
2018-09-29T19:33:48.154Z,9.30
2018-09-29T19:36:17.283Z,9.30
2018-09-29T19:38:46.790Z,9.33
2018-09-29T19:41:16.041Z,9.24
2018-09-29T19:43:45.428Z,9.16
2018-09-29T19:46:14.810Z,8.98
2018-09-29T19:48:44.165Z,8.89
2018-09-29T19:51:13.627Z,8.83
2018-09-29T19:53:43.323Z,8.85
2018-09-29T19:56:12.450Z,8.75
2018-09-29T19:58:42.541Z,8.61
2018-09-29T20:01:14.662Z,8.44
2018-09-29T20:03:43.825Z,8.37
2018-09-29T20:06:13.214Z,8.33
2018-09-29T20:08:42.585Z,8.18
2018-09-29T20:11:13.343Z,8.37
2018-09-29T20:13:43.664Z,8.17
2018-09-29T20:16:12.793Z,8.32
2018-09-29T20:18:42.152Z,8.28
2018-09-29T20:21:11.262Z,8.25
2018-09-29T20:23:41.377Z,8.26
2018-09-29T20:26:10.556Z,8.25
2018-09-29T20:28:40.087Z,8.20
2018-09-29T20:31:10.014Z,8.11
2018-09-29T20:33:39.270Z,8.14
2018-09-29T20:36:09.293Z,8.10
2018-09-29T20:38:38.774Z,7.92
2018-09-29T20:41:08.225Z,7.90
2018-09-29T20:43:37.634Z,7.94
2018-09-29T20:46:07.358Z,7.94
2018-09-29T20:48:37.002Z,7.81
2018-09-29T20:51:07.985Z,7.41
2018-09-29T20:53:37.837Z,7.17
2018-09-29T20:56:07.677Z,7.28
2018-09-29T20:58:37.033Z,7.46
2018-09-29T21:01:07.260Z,7.52
2018-09-29T21:03:36.618Z,7.35
2018-09-29T21:06:06.978Z,7.28
2018-09-29T21:08:36.362Z,7.32
2018-09-29T21:11:09.226Z,7.23
2018-09-29T21:13:39.261Z,7.11
2018-09-29T21:16:08.505Z,6.69
2018-09-29T21:18:41.825Z,6.54
2018-09-29T21:21:11.092Z,6.66
2018-09-29T21:23:40.950Z,6.65
2018-09-29T21:26:10.257Z,6.34
2018-09-29T21:28:39.984Z,6.34
2018-09-29T21:31:09.187Z,6.23
2018-09-29T21:33:38.661Z,6.30
2018-09-29T21:36:09.313Z,6.38
2018-09-29T21:38:38.685Z,6.55
2018-09-29T21:41:08.045Z,6.50
2018-09-29T21:43:37.729Z,6.38
2018-09-29T21:46:07.361Z,6.17
2018-09-29T21:48:36.745Z,5.94
2018-09-29T21:51:07.061Z,5.86
2018-09-29T21:53:36.548Z,5.88
2018-09-29T21:56:08.029Z,5.93
2018-09-29T21:58:37.993Z,5.96
2018-09-29T22:01:13.185Z,5.90
2018-09-29T22:03:42.713Z,5.91
2018-09-29T22:06:13.518Z,5.94
2018-09-29T22:08:43.468Z,5.94
2018-09-29T22:11:13.341Z,5.75
2018-09-29T22:13:43.254Z,5.66
2018-09-29T22:16:12.633Z,5.47
2018-09-29T22:18:42.076Z,5.37
2018-09-29T22:21:11.794Z,5.43
2018-09-29T22:23:41.529Z,5.63
2018-09-29T22:26:11.074Z,5.63
2018-09-29T22:28:40.410Z,5.31
2018-09-29T22:31:09.568Z,5.02
2018-09-29T22:33:40.801Z,4.80
2018-09-29T22:36:11.229Z,4.83
2018-09-29T22:38:40.354Z,4.61
2018-09-29T22:41:09.430Z,4.46
2018-09-29T22:43:39.791Z,4.63
2018-09-29T22:46:08.898Z,4.77
2018-09-29T22:48:38.193Z,4.84
2018-09-29T22:51:07.521Z,4.79
2018-09-29T22:53:37.378Z,4.56
2018-09-29T22:56:07.131Z,4.69
2018-09-29T22:58:36.365Z,4.86
2018-09-29T23:01:05.457Z,5.12
2018-09-29T23:03:35.726Z,5.13
2018-09-29T23:06:05.281Z,4.91
2018-09-29T23:08:36.182Z,4.62
2018-09-29T23:11:05.506Z,4.38
2018-09-29T23:13:34.956Z,4.42
2018-09-29T23:16:04.042Z,4.60
2018-09-29T23:18:33.202Z,4.62
2018-09-29T23:21:02.337Z,4.59
2018-09-29T23:23:32.139Z,4.42
2018-09-29T23:26:01.365Z,4.44
2018-09-29T23:28:31.178Z,4.51
2018-09-29T23:31:00.282Z,4.30
2018-09-29T23:33:29.430Z,4.17
2018-09-29T23:35:58.528Z,4.18
2018-09-29T23:38:28.194Z,4.22
2018-09-29T23:40:57.370Z,4.32
2018-09-29T23:43:26.489Z,4.46
2018-09-29T23:45:55.633Z,4.37
2018-09-29T23:48:24.726Z,4.42
2018-09-29T23:50:53.838Z,4.41
2018-09-29T23:53:23.158Z,4.24
2018-09-29T23:55:52.302Z,4.02
2018-09-29T23:58:21.390Z,3.99
